Time;durP1;ratioP1;P1;durP2;ratioP2;P2;SDS_P1;SDS_P2;PMS_P1;PMS_P2;Temp;Humidity;BMP_temperature;BMP_pressure;BME280_temperature;BME280_humidity;BME280_pressure;Samples;Min_cycle;Max_cycle;Signal;HPM_P1;HPM_P2
2022/09/20 00:00:19;;;;;;;3.20;1.63;;;9.40;99.90;;;;;;4120351;28;20456;-81
2022/09/20 00:02:21;;;;;;;7.00;2.20;;;9.30;99.90;;;;;;4145434;28;20443;-80
2022/09/20 00:04:23;;;;;;;8.80;1.70;;;9.40;99.90;;;;;;4146016;28;20471;-81
2022/09/20 00:06:27;;;;;;;3.97;1.70;;;9.30;99.90;;;;;;4144848;28;20224;-80
2022/09/20 00:08:30;;;;;;;4.27;1.97;;;9.30;99.90;;;;;;4146615;28;20212;-81
2022/09/20 00:10:35;;;;;;;3.10;1.30;;;9.30;99.90;;;;;;4121008;28;20251;-80
2022/09/20 00:12:38;;;;;;;4.33;1.80;;;9.30;99.90;;;;;;4144449;28;20474;-85
2022/09/20 00:14:40;;;;;;;4.97;1.80;;;9.30;99.90;;;;;;4146301;28;20231;-81
2022/09/20 00:16:42;;;;;;;5.13;2.10;;;9.30;99.90;;;;;;4128537;28;20208;-81
2022/09/20 00:18:48;;;;;;;3.70;1.73;;;9.30;99.90;;;;;;4147000;28;20204;-81
2022/09/20 00:20:51;;;;;;;2.63;1.67;;;9.20;99.90;;;;;;4146032;28;20555;-80
2022/09/20 00:22:53;;;;;;;5.20;1.77;;;9.30;99.90;;;;;;4128332;28;20463;-80
2022/09/20 00:24:55;;;;;;;6.60;2.10;;;9.60;99.90;;;;;;4148620;28;20238;-80
2022/09/20 00:26:57;;;;;;;8.30;2.20;;;9.30;99.90;;;;;;4213755;28;20999;-80
2022/09/20 00:29:00;;;;;;;4.60;1.90;;;9.30;99.90;;;;;;4158099;28;20446;-86
2022/09/20 00:31:21;;;;;;;4.17;2.17;;;9.30;99.90;;;;;;4159362;28;20497;-85
2022/09/20 00:35:06;;;;;;;4.07;2.00;;;9.10;99.90;;;;;;4166462;28;20442;-81
2022/09/20 00:35:46;;;;;;;4.33;1.70;;;9.30;99.90;;;;;;4166308;28;20489;-82
2022/09/20 00:37:48;;;;;;;5.07;2.00;;;9.30;99.90;;;;;;4167074;28;20451;-79
2022/09/20 00:39:50;;;;;;;3.83;1.77;;;9.40;99.90;;;;;;4168120;28;20459;-80
2022/09/20 00:41:52;;;;;;;2.73;1.60;;;9.40;99.90;;;;;;4167372;28;20454;-82
2022/09/20 00:43:54;;;;;;;5.40;1.87;;;9.40;99.90;;;;;;4161809;28;20467;-81
2022/09/20 00:45:58;;;;;;;5.80;2.03;;;9.40;99.90;;;;;;4138146;28;21255;-81
2022/09/20 00:48:03;;;;;;;5.67;1.73;;;9.40;99.90;;;;;;4138431;28;20464;-80
2022/09/20 00:50:21;;;;;;;2.60;1.87;;;9.40;99.90;;;;;;4157047;28;20477;-81
2022/09/20 00:52:24;;;;;;;3.77;1.90;;;9.40;99.90;;;;;;4162024;28;20216;-81
2022/09/20 00:54:28;;;;;;;4.27;1.97;;;9.40;99.90;;;;;;4138189;28;20475;-80
2022/09/20 00:56:33;;;;;;;4.67;2.03;;;9.40;99.90;;;;;;4140039;28;20211;-81
2022/09/20 00:58:39;;;;;;;5.50;2.10;;;9.30;99.90;;;;;;4136844;28;20488;-82
2022/09/20 01:00:43;;;;;;;3.90;1.73;;;9.30;99.90;;;;;;4146500;28;20463;-82
2022/09/20 01:02:50;;;;;;;6.87;2.40;;;9.30;99.90;;;;;;4131195;28;21026;-82
2022/09/20 01:04:53;;;;;;;5.57;2.00;;;9.40;99.90;;;;;;4139552;28;20480;-82
2022/09/20 01:06:58;;;;;;;4.60;2.10;;;9.40;99.90;;;;;;4152354;28;20482;-81
2022/09/20 01:09:03;;;;;;;4.27;1.60;;;9.30;99.90;;;;;;4133297;28;20550;-81
2022/09/20 01:11:05;;;;;;;5.33;1.63;;;9.40;99.90;;;;;;4133510;28;20460;-81
2022/09/20 01:13:07;;;;;;;4.87;2.00;;;9.30;99.90;;;;;;4156572;28;20454;-82
2022/09/20 01:15:10;;;;;;;4.13;1.90;;;9.40;99.90;;;;;;4152292;28;20516;-83
2022/09/20 01:17:13;;;;;;;3.40;1.67;;;9.40;99.90;;;;;;4132760;28;20464;-82
2022/09/20 01:19:27;;;;;;;4.20;2.20;;;9.40;99.90;;;;;;4214922;28;20459;-82
2022/09/20 01:21:30;;;;;;;3.90;2.07;;;9.40;99.90;;;;;;4127993;28;20555;-82
2022/09/20 01:23:52;;;;;;;4.57;2.10;;;9.40;99.90;;;;;;4131549;28;20532;-82
2022/09/20 01:26:17;;;;;;;3.83;2.03;;;9.40;99.90;;;;;;4152764;28;20528;-81
2022/09/20 01:28:21;;;;;;;3.47;2.10;;;9.60;99.90;;;;;;4155157;28;20470;-82
2022/09/20 01:30:25;;;;;;;3.87;2.17;;;9.40;99.90;;;;;;4133693;28;20452;-82
2022/09/20 01:32:38;;;;;;;4.13;2.00;;;9.30;99.90;;;;;;4154877;28;20451;-82
2022/09/20 01:34:46;;;;;;;5.60;2.40;;;9.40;99.90;;;;;;4133543;28;20583;-82
2022/09/20 01:36:53;;;;;;;4.43;2.30;;;9.40;99.90;;;;;;4164963;28;21028;-83
2022/09/20 01:39:07;;;;;;;4.97;2.30;;;9.40;99.90;;;;;;4173345;23;20313;-83
2022/09/20 01:41:13;;;;;;;6.50;2.90;;;9.40;99.90;;;;;;4218827;28;20505;-82
2022/09/20 01:43:24;;;;;;;9.13;2.90;;;9.30;99.90;;;;;;4222588;28;20215;-82
2022/09/20 01:45:29;;;;;;;9.77;3.23;;;9.30;99.90;;;;;;4218878;28;20529;-82
2022/09/20 01:47:34;;;;;;;8.00;3.17;;;9.30;99.90;;;;;;4202058;28;20547;-82
2022/09/20 01:49:45;;;;;;;10.07;2.80;;;9.30;99.90;;;;;;4205337;28;20289;-82
2022/09/20 01:52:31;;;;;;;5.37;2.70;;;9.30;99.90;;;;;;4226570;28;20450;-83
2022/09/20 01:55:30;;;;;;;7.20;3.00;;;9.30;99.90;;;;;;4216687;28;21399;-82
2022/09/20 01:57:58;;;;;;;10.97;2.73;;;9.30;99.90;;;;;;4213258;28;20202;-82
2022/09/20 02:00:09;;;;;;;7.23;3.07;;;9.30;99.90;;;;;;4231447;28;20534;-82
2022/09/20 02:02:39;;;;;;;6.17;2.77;;;9.30;99.90;;;;;;4229213;28;20225;-82
2022/09/20 02:05:07;;;;;;;6.13;2.80;;;9.20;99.90;;;;;;4199484;28;20480;-82
2022/09/20 02:07:32;;;;;;;6.43;2.60;;;9.20;99.90;;;;;;4188277;28;20495;-82
2022/09/20 02:10:17;;;;;;;9.00;2.60;;;9.20;99.90;;;;;;4197044;28;21202;-82
2022/09/20 02:12:34;;;;;;;7.23;2.87;;;9.20;99.90;;;;;;4226832;28;20863;-82
2022/09/20 02:14:44;;;;;;;6.03;2.70;;;9.20;99.90;;;;;;4217838;28;20502;-82
2022/09/20 02:16:53;;;;;;;4.53;2.63;;;9.20;99.90;;;;;;4216396;28;20451;-82
2022/09/20 02:19:12;;;;;;;6.30;2.83;;;9.20;99.90;;;;;;4214927;28;20465;-82
2022/09/20 02:21:29;;;;;;;5.57;2.43;;;9.20;99.90;;;;;;4201837;28;20452;-82
2022/09/20 02:23:43;;;;;;;9.33;3.03;;;9.20;99.90;;;;;;4213783;28;20444;-82
2022/09/20 02:26:04;;;;;;;6.10;2.60;;;9.30;99.90;;;;;;4202943;28;20560;-82
2022/09/20 02:28:21;;;;;;;6.50;3.10;;;9.20;99.90;;;;;;4221476;28;20470;-82
2022/09/20 02:30:35;;;;;;;7.90;2.80;;;9.10;99.90;;;;;;4204614;28;20499;-82
2022/09/20 02:32:55;;;;;;;10.23;3.37;;;9.20;99.90;;;;;;4204311;28;20491;-81
2022/09/20 02:35:28;;;;;;;15.23;3.27;;;9.10;99.90;;;;;;4224113;28;20934;-81
2022/09/20 02:37:54;;;;;;;6.57;2.70;;;9.20;99.90;;;;;;4216964;28;20861;-82
2022/09/20 02:40:10;;;;;;;9.07;3.10;;;9.10;99.90;;;;;;4204637;28;20484;-83
2022/09/20 02:42:17;;;;;;;11.50;3.10;;;9.10;99.90;;;;;;4204877;28;20932;-84
2022/09/20 02:44:31;;;;;;;4.63;2.93;;;9.20;99.90;;;;;;4220089;28;20462;-82
2022/09/20 02:46:41;;;;;;;8.33;2.83;;;9.10;99.90;;;;;;4200080;28;20472;-84
2022/09/20 02:48:51;;;;;;;10.27;3.00;;;9.10;99.90;;;;;;4203921;28;20459;-82
2022/09/20 02:51:01;;;;;;;5.23;2.57;;;9.20;99.90;;;;;;4217882;28;20458;-84
2022/09/20 02:53:18;;;;;;;6.37;2.70;;;9.10;99.90;;;;;;4194760;28;20483;-83
2022/09/20 02:55:31;;;;;;;7.93;2.93;;;9.10;99.90;;;;;;4201595;28;20444;-85
2022/09/20 02:57:43;;;;;;;7.77;3.13;;;9.10;99.90;;;;;;4208271;28;20579;-84
2022/09/20 02:59:52;;;;;;;8.10;3.13;;;9.10;99.90;;;;;;4209237;28;20486;-84
2022/09/20 03:02:05;;;;;;;6.50;2.87;;;9.10;99.90;;;;;;4225147;28;20501;-84
2022/09/20 03:04:34;;;;;;;5.27;2.50;;;9.10;99.90;;;;;;4222286;28;20444;-84
2022/09/20 03:06:43;;;;;;;16.20;3.13;;;9.00;99.90;;;;;;4223575;28;20592;-83
2022/09/20 03:08:52;;;;;;;8.17;2.80;;;9.10;99.90;;;;;;4225806;28;20478;-83
2022/09/20 03:11:03;;;;;;;9.33;2.53;;;9.00;99.90;;;;;;4200185;28;20510;-84
2022/09/20 03:13:14;;;;;;;9.53;2.73;;;9.10;99.90;;;;;;4214152;28;20463;-83
2022/09/20 03:15:29;;;;;;;7.37;2.67;;;9.10;99.90;;;;;;4220600;28;20498;-84
2022/09/20 03:17:42;;;;;;;5.93;2.70;;;9.10;99.90;;;;;;4221978;28;20442;-84
2022/09/20 03:20:00;;;;;;;8.63;2.90;;;9.10;99.90;;;;;;4227518;28;20535;-84
2022/09/20 03:22:12;;;;;;;5.90;2.63;;;9.10;99.90;;;;;;4202695;28;20451;-84
2022/09/20 03:24:23;;;;;;;5.40;2.60;;;9.10;99.90;;;;;;4219888;28;20442;-84
2022/09/20 03:26:38;;;;;;;9.03;2.70;;;9.10;99.90;;;;;;4200420;28;20486;-83
2022/09/20 03:29:03;;;;;;;6.00;2.30;;;9.00;99.90;;;;;;4221147;28;20465;-84
2022/09/20 03:31:19;;;;;;;5.43;2.60;;;9.10;99.90;;;;;;4189800;28;20468;-84
2022/09/20 03:33:29;;;;;;;6.33;2.60;;;9.00;99.90;;;;;;4219184;28;20494;-82
2022/09/20 03:35:46;;;;;;;11.17;2.70;;;9.00;99.90;;;;;;4206647;28;20267;-84
2022/09/20 03:38:03;;;;;;;4.83;2.30;;;9.00;99.90;;;;;;4204350;28;20450;-83
2022/09/20 03:40:39;;;;;;;6.83;2.63;;;9.00;99.90;;;;;;4201167;28;20622;-84
2022/09/20 03:42:47;;;;;;;6.13;2.37;;;9.00;99.90;;;;;;4189232;28;20487;-84
2022/09/20 03:45:19;;;;;;;8.10;2.80;;;9.00;99.90;;;;;;4198458;28;20459;-84
2022/09/20 03:47:38;;;;;;;8.40;2.40;;;9.00;99.90;;;;;;4196330;28;20464;-84
2022/09/20 03:50:01;;;;;;;7.20;3.00;;;8.90;99.90;;;;;;4199431;28;20526;-84
2022/09/20 03:52:17;;;;;;;6.67;2.00;;;9.00;99.90;;;;;;4196912;28;20494;-83
2022/09/20 03:54:38;;;;;;;9.07;2.43;;;9.00;99.90;;;;;;4219836;28;20533;-84
2022/09/20 03:57:20;;;;;;;7.20;2.30;;;9.00;99.90;;;;;;4198616;28;20479;-84
2022/09/20 03:59:43;;;;;;;7.33;2.40;;;9.00;99.90;;;;;;4214397;28;20558;-83
2022/09/20 04:02:05;;;;;;;7.40;2.33;;;9.00;99.90;;;;;;4201215;28;20574;-84
2022/09/20 04:04:19;;;;;;;7.07;2.60;;;9.10;99.90;;;;;;4221022;28;20450;-84
2022/09/20 04:06:44;;;;;;;8.57;2.60;;;8.90;99.90;;;;;;4221154;28;20446;-84
2022/09/20 04:09:24;;;;;;;7.10;2.20;;;8.90;99.90;;;;;;4204216;28;20478;-85
2022/09/20 04:11:32;;;;;;;7.17;2.53;;;8.90;99.90;;;;;;4220425;28;20458;-85
2022/09/20 04:13:37;;;;;;;10.13;2.40;;;8.90;99.90;;;;;;4214538;28;20581;-84
2022/09/20 04:15:50;;;;;;;6.27;2.23;;;8.90;99.90;;;;;;4199149;28;20479;-83
2022/09/20 04:17:59;;;;;;;4.13;2.40;;;8.90;99.90;;;;;;4204803;28;20892;-84
2022/09/20 04:20:05;;;;;;;7.07;2.77;;;8.90;99.90;;;;;;4192653;28;21048;-84
2022/09/20 04:22:09;;;;;;;7.97;2.50;;;8.90;99.90;;;;;;4200412;28;20202;-84
2022/09/20 04:24:21;;;;;;;9.30;2.80;;;8.90;99.90;;;;;;4208334;28;20484;-84
2022/09/20 04:26:26;;;;;;;4.90;2.60;;;8.90;99.90;;;;;;4198848;28;20467;-84
2022/09/20 04:28:34;;;;;;;12.53;2.70;;;8.90;99.90;;;;;;4196455;28;20987;-84
2022/09/20 04:30:42;;;;;;;4.73;2.70;;;8.90;99.90;;;;;;4220840;28;20532;-84
2022/09/20 04:32:51;;;;;;;5.70;2.60;;;8.90;99.90;;;;;;4205573;28;20482;-84
2022/09/20 04:37:28;;;;;;;8.27;2.90;;;8.90;99.90;;;;;;4202270;28;20444;-83
2022/09/20 04:39:42;;;;;;;10.70;3.10;;;8.90;99.90;;;;;;4203330;28;20510;-83
2022/09/20 04:42:17;;;;;;;12.07;3.03;;;8.90;99.90;;;;;;4219661;28;20446;-82
2022/09/20 04:44:36;;;;;;;6.13;2.60;;;8.90;99.90;;;;;;4204433;28;20455;-84
2022/09/20 04:47:07;;;;;;;8.03;3.10;;;8.90;99.90;;;;;;4221555;28;20585;-84
2022/09/20 04:49:47;;;;;;;8.10;3.20;;;8.90;99.90;;;;;;4214533;28;20488;-83
2022/09/20 04:52:12;;;;;;;7.63;3.17;;;8.90;99.90;;;;;;4213853;28;20472;-84
2022/09/20 04:54:44;;;;;;;4.63;3.10;;;8.90;99.90;;;;;;4205922;28;20491;-84
2022/09/20 04:57:08;;;;;;;7.90;3.70;;;8.90;99.90;;;;;;4204530;28;20201;-83
2022/09/20 04:59:15;;;;;;;9.10;2.97;;;8.90;99.90;;;;;;4199874;28;20484;-84
2022/09/20 05:02:08;;;;;;;12.03;3.50;;;8.90;99.90;;;;;;4204311;28;20505;-84
2022/09/20 05:05:01;;;;;;;15.50;4.07;;;8.90;99.90;;;;;;4225121;28;20532;-82
2022/09/20 05:07:27;;;;;;;12.30;3.97;;;8.90;99.90;;;;;;4196542;28;20472;-82
2022/09/20 05:09:49;;;;;;;9.33;4.17;;;8.90;99.90;;;;;;4213090;28;20865;-79
2022/09/20 05:12:24;;;;;;;7.80;3.83;;;8.90;99.90;;;;;;4199718;28;20472;-82
2022/09/20 05:14:46;;;;;;;9.43;4.10;;;8.90;99.90;;;;;;4196305;28;20537;-81
2022/09/20 05:17:05;;;;;;;12.80;3.97;;;8.80;99.90;;;;;;4204443;28;20883;-81
2022/09/20 05:19:25;;;;;;;11.03;4.30;;;8.90;99.90;;;;;;4216740;28;21193;-81
2022/09/20 05:21:43;;;;;;;10.13;3.77;;;8.90;99.90;;;;;;4197199;28;20467;-82
2022/09/20 05:24:13;;;;;;;12.17;4.37;;;8.90;99.90;;;;;;4215985;28;21082;-81
2022/09/20 05:26:25;;;;;;;9.57;4.03;;;8.90;99.90;;;;;;4151574;28;20495;-81
2022/09/20 05:28:36;;;;;;;10.63;4.90;;;8.90;99.90;;;;;;4213803;28;20502;-81
2022/09/20 05:30:43;;;;;;;10.87;4.80;;;8.90;99.90;;;;;;4213301;28;20463;-81
2022/09/20 05:32:51;;;;;;;10.03;4.57;;;9.00;99.90;;;;;;4215364;28;20441;-81
2022/09/20 05:34:58;;;;;;;14.77;5.20;;;9.00;99.90;;;;;;4215818;28;20223;-77
2022/09/20 05:37:06;;;;;;;12.27;5.37;;;8.90;99.90;;;;;;4216071;28;20708;-80
2022/09/20 05:39:26;;;;;;;26.00;8.37;;;9.00;99.90;;;;;;4203907;28;20485;-80
2022/09/20 05:41:36;;;;;;;18.97;7.00;;;9.00;99.90;;;;;;4218857;28;20441;-79
2022/09/20 05:43:52;;;;;;;22.03;8.17;;;9.00;99.90;;;;;;4200508;28;20521;-82
2022/09/20 05:46:04;;;;;;;18.27;7.33;;;9.00;99.90;;;;;;4212863;28;21089;-81
2022/09/20 05:48:14;;;;;;;16.87;7.60;;;9.10;99.90;;;;;;4212925;28;20266;-82
2022/09/20 05:50:37;;;;;;;22.60;7.63;;;9.10;99.90;;;;;;4197060;28;20672;-82
2022/09/20 05:52:48;;;;;;;16.53;6.67;;;9.00;99.90;;;;;;4193327;28;20198;-82
2022/09/20 05:55:16;;;;;;;17.20;6.00;;;9.00;99.90;;;;;;4208416;28;20475;-81
2022/09/20 05:57:29;;;;;;;16.03;6.27;;;9.00;99.90;;;;;;4196387;27;20473;-83
2022/09/20 05:59:43;;;;;;;24.17;7.23;;;9.10;99.90;;;;;;4212916;28;20471;-83
2022/09/20 06:01:58;;;;;;;17.10;6.67;;;9.00;99.90;;;;;;4232058;27;20204;-83
2022/09/20 06:04:14;;;;;;;19.97;7.80;;;9.10;99.90;;;;;;4237265;27;20635;-82
2022/09/20 06:06:27;;;;;;;17.47;7.37;;;9.10;99.90;;;;;;4209418;28;20208;-82
2022/09/20 06:08:51;;;;;;;16.80;7.23;;;9.20;99.90;;;;;;4207739;28;20588;-83
2022/09/20 06:11:17;;;;;;;16.20;6.60;;;9.10;99.90;;;;;;4225962;28;20275;-82
2022/09/20 06:13:35;;;;;;;22.30;7.53;;;9.20;99.90;;;;;;4214060;28;20886;-83
2022/09/20 06:15:47;;;;;;;18.60;7.23;;;9.20;99.90;;;;;;4217011;28;20443;-83
2022/09/20 06:17:57;;;;;;;19.53;6.70;;;9.20;99.90;;;;;;4218222;28;20238;-83
2022/09/20 06:20:13;;;;;;;16.70;6.13;;;9.20;99.90;;;;;;4235011;28;20481;-83
2022/09/20 06:22:21;;;;;;;20.03;6.30;;;9.20;99.90;;;;;;4210053;28;20547;-84
2022/09/20 06:24:38;;;;;;;13.57;6.00;;;9.50;99.90;;;;;;4226068;28;20485;-81
2022/09/20 06:26:43;;;;;;;12.93;5.73;;;9.30;99.90;;;;;;4231107;28;20446;-78
2022/09/20 06:28:49;;;;;;;19.73;6.33;;;9.30;99.90;;;;;;4229590;28;20284;-81
2022/09/20 06:30:54;;;;;;;16.43;5.53;;;9.40;99.90;;;;;;4219520;28;20490;-80
2022/09/20 06:32:58;;;;;;;14.03;5.60;;;9.30;99.90;;;;;;4236692;28;20192;-81
2022/09/20 06:35:01;;;;;;;12.47;5.87;;;9.30;99.90;;;;;;4221345;28;20236;-80
2022/09/20 06:42:05;;;;;;;14.67;6.00;;;9.40;99.90;;;;;;4239377;28;20942;-81
2022/09/20 06:44:07;;;;;;;11.03;5.80;;;9.40;99.90;;;;;;4225243;28;20237;-81
2022/09/20 06:46:10;;;;;;;14.80;6.00;;;9.30;99.90;;;;;;4244632;28;20200;-81
2022/09/20 06:48:14;;;;;;;10.33;5.13;;;9.40;99.90;;;;;;4236561;28;20474;-80
2022/09/20 06:50:16;;;;;;;13.37;5.17;;;9.40;99.90;;;;;;4217750;28;20289;-81
2022/09/20 06:52:21;;;;;;;12.33;5.10;;;9.40;99.90;;;;;;4219307;28;20228;-81
2022/09/20 06:54:25;;;;;;;11.07;4.93;;;9.40;99.90;;;;;;4228914;28;20996;-81
2022/09/20 06:56:31;;;;;;;7.60;4.67;;;9.40;99.90;;;;;;4210781;28;20205;-82
2022/09/20 06:58:33;;;;;;;8.30;4.30;;;9.50;99.90;;;;;;4210654;28;20229;-81
2022/09/20 07:00:35;;;;;;;9.50;5.00;;;9.50;99.90;;;;;;4218248;28;20728;-82
2022/09/20 07:02:38;;;;;;;11.00;4.20;;;9.60;99.90;;;;;;4218935;28;20280;-82
2022/09/20 07:04:40;;;;;;;10.70;4.77;;;9.60;99.90;;;;;;4216952;28;20573;-81
2022/09/20 07:06:42;;;;;;;13.43;4.57;;;9.60;99.90;;;;;;4233566;28;20217;-82
2022/09/20 07:08:44;;;;;;;11.20;4.73;;;9.60;99.90;;;;;;4234915;28;20918;-82
2022/09/20 07:10:47;;;;;;;10.17;4.73;;;9.90;99.90;;;;;;4233925;28;20227;-81
2022/09/20 07:12:48;;;;;;;12.60;5.20;;;9.70;99.90;;;;;;4220050;28;20331;-81
2022/09/20 07:14:50;;;;;;;13.73;5.60;;;9.70;99.90;;;;;;4218691;28;20665;-82
2022/09/20 07:16:52;;;;;;;13.10;5.23;;;9.70;99.90;;;;;;4213851;28;20245;-82
2022/09/20 07:18:56;;;;;;;13.77;5.50;;;9.60;99.90;;;;;;4217983;28;20201;-81
2022/09/20 07:20:58;;;;;;;14.33;6.17;;;9.70;99.90;;;;;;4239269;27;20204;-80
2022/09/20 07:23:00;;;;;;;15.03;5.50;;;9.90;99.90;;;;;;4220818;28;20317;-80
2022/09/20 07:25:02;;;;;;;16.67;6.00;;;9.70;99.90;;;;;;4221147;28;20655;-80
2022/09/20 07:27:06;;;;;;;14.27;5.50;;;9.70;99.90;;;;;;4238597;27;20229;-84
2022/09/20 07:29:09;;;;;;;11.73;5.27;;;9.80;99.90;;;;;;4221936;28;20280;-81
2022/09/20 07:31:11;;;;;;;12.53;5.80;;;9.80;99.90;;;;;;4211418;28;20585;-80
2022/09/20 07:33:18;;;;;;;11.53;4.80;;;9.80;99.90;;;;;;4240161;27;20213;-81
2022/09/20 07:35:21;;;;;;;10.53;5.33;;;9.90;99.90;;;;;;4240164;27;20212;-81
2022/09/20 07:37:23;;;;;;;10.30;5.77;;;10.00;99.90;;;;;;4222521;28;20206;-80
2022/09/20 07:39:26;;;;;;;18.90;6.83;;;10.00;99.90;;;;;;4235330;27;20260;-80
2022/09/20 07:41:29;;;;;;;15.90;6.07;;;10.00;99.90;;;;;;4219818;28;20206;-81
2022/09/20 07:43:32;;;;;;;11.07;5.67;;;10.00;99.90;;;;;;4231946;27;20240;-80
2022/09/20 07:45:38;;;;;;;11.87;5.57;;;10.10;99.90;;;;;;4220644;28;20203;-81
2022/09/20 07:47:40;;;;;;;16.80;6.13;;;10.10;99.90;;;;;;4219505;28;20214;-81
2022/09/20 07:49:42;;;;;;;9.33;5.03;;;10.20;99.90;;;;;;4217163;28;20759;-81
2022/09/20 07:51:46;;;;;;;14.97;5.50;;;10.20;99.90;;;;;;4210031;27;20198;-81
2022/09/20 07:53:48;;;;;;;11.93;5.13;;;10.20;99.90;;;;;;4235274;27;20206;-81
2022/09/20 07:56:00;;;;;;;15.07;5.90;;;10.20;99.90;;;;;;4240175;27;20697;-81
2022/09/20 07:58:02;;;;;;;12.20;5.20;;;10.30;99.90;;;;;;4217945;28;20210;-81
2022/09/20 08:00:06;;;;;;;13.50;5.30;;;10.30;99.90;;;;;;4219550;28;20227;-81
2022/09/20 08:02:13;;;;;;;16.10;6.13;;;10.40;99.90;;;;;;4242484;27;20225;-81
2022/09/20 08:04:15;;;;;;;18.13;7.10;;;10.60;99.90;;;;;;4239659;27;20627;-81
2022/09/20 08:06:20;;;;;;;17.47;6.87;;;10.40;99.90;;;;;;4245562;27;20197;-81
2022/09/20 08:08:23;;;;;;;13.93;6.77;;;10.40;99.90;;;;;;4230119;28;20325;-81
2022/09/20 08:10:25;;;;;;;15.87;7.17;;;10.40;99.90;;;;;;4226055;28;20254;-80
2022/09/20 08:12:28;;;;;;;17.60;7.33;;;10.60;99.90;;;;;;4249657;27;20643;-81
2022/09/20 08:14:30;;;;;;;17.10;7.00;;;10.50;99.90;;;;;;4241545;27;20238;-81
2022/09/20 08:16:32;;;;;;;19.30;8.00;;;10.60;99.90;;;;;;4227252;28;20215;-81
2022/09/20 08:18:35;;;;;;;16.10;7.63;;;10.60;99.90;;;;;;4232053;28;20311;-80
2022/09/20 08:20:39;;;;;;;20.13;9.47;;;10.70;99.90;;;;;;4227683;28;20600;-81
2022/09/20 08:23:09;;;;;;;17.90;8.63;;;10.70;99.90;;;;;;4240338;27;20323;-81
2022/09/20 08:25:14;;;;;;;20.23;8.63;;;10.70;99.90;;;;;;4196959;28;20309;-81
2022/09/20 08:27:16;;;;;;;18.50;8.00;;;10.80;99.90;;;;;;4233750;27;20218;-81
2022/09/20 08:38:48;;;;;;;21.40;10.03;;;10.80;99.90;;;;;;4110777;28;20207;-80
2022/09/20 08:40:52;;;;;;;16.53;8.80;;;10.90;99.90;;;;;;4118143;28;20237;-80
2022/09/20 08:42:55;;;;;;;21.77;9.27;;;10.90;99.90;;;;;;4187730;28;20225;-80
2022/09/20 08:44:59;;;;;;;19.57;9.30;;;11.00;99.90;;;;;;4231297;27;20218;-81
2022/09/20 08:47:08;;;;;;;27.17;9.33;;;11.00;99.90;;;;;;4239553;27;20260;-83
2022/09/20 08:49:19;;;;;;;34.70;10.83;;;11.10;99.90;;;;;;4211192;28;20289;-81
2022/09/20 08:51:22;;;;;;;29.67;11.17;;;11.10;99.90;;;;;;4212164;28;20717;-81
2022/09/20 08:53:26;;;;;;;24.73;10.17;;;11.10;99.90;;;;;;4180355;28;20211;-81
2022/09/20 08:55:30;;;;;;;21.60;8.73;;;11.30;99.90;;;;;;4234611;27;20238;-81
2022/09/20 08:57:33;;;;;;;16.93;7.40;;;11.20;99.90;;;;;;4234463;27;20219;-80
2022/09/20 08:59:35;;;;;;;14.27;7.30;;;11.30;99.90;;;;;;4232876;27;20219;-81
2022/09/20 09:01:37;;;;;;;13.47;6.77;;;11.30;99.90;;;;;;4217799;28;20236;-81
2022/09/20 09:03:39;;;;;;;11.17;6.00;;;11.40;99.90;;;;;;4234973;27;20241;-81
2022/09/20 09:05:45;;;;;;;11.63;6.10;;;11.40;99.90;;;;;;4235106;27;20287;-80
2022/09/20 09:07:47;;;;;;;12.47;5.97;;;11.50;99.90;;;;;;4216051;28;20239;-81
2022/09/20 09:09:52;;;;;;;11.43;5.50;;;11.50;99.90;;;;;;4220344;28;20648;-81
2022/09/20 09:11:57;;;;;;;8.27;5.00;;;11.60;99.90;;;;;;4205982;28;20202;-81
2022/09/20 09:14:03;;;;;;;9.90;5.00;;;11.60;99.90;;;;;;4231251;27;20254;-79
2022/09/20 09:16:10;;;;;;;9.73;5.00;;;11.70;99.90;;;;;;4233073;27;20212;-81
2022/09/20 09:18:12;;;;;;;12.93;5.27;;;11.70;99.90;;;;;;4230278;27;20201;-81
2022/09/20 09:20:20;;;;;;;10.00;5.70;;;11.80;99.90;;;;;;4218761;28;20229;-81
2022/09/20 09:22:25;;;;;;;11.77;5.30;;;11.80;99.90;;;;;;4216585;28;20210;-81
2022/09/20 09:24:30;;;;;;;21.97;8.13;;;11.80;99.90;;;;;;4219287;28;20204;-83
2022/09/20 09:26:37;;;;;;;14.70;6.93;;;11.90;99.90;;;;;;4213380;28;20658;-79
2022/09/20 09:28:39;;;;;;;14.17;6.60;;;12.00;99.90;;;;;;4213606;28;20239;-80
2022/09/20 09:30:46;;;;;;;17.23;6.87;;;12.10;99.90;;;;;;4235146;27;20229;-80
2022/09/20 09:32:50;;;;;;;16.47;7.07;;;12.10;99.90;;;;;;4234555;27;20210;-83
2022/09/20 09:34:52;;;;;;;14.67;6.53;;;12.20;99.90;;;;;;4231926;27;20202;-80
2022/09/20 09:36:55;;;;;;;13.23;6.00;;;12.20;99.90;;;;;;4236566;27;20683;-81
2022/09/20 09:39:16;;;;;;;12.17;5.97;;;12.30;99.90;;;;;;4235226;27;20200;-82
2022/09/20 09:41:25;;;;;;;15.77;5.93;;;12.30;99.90;;;;;;4233233;27;20696;-80
2022/09/20 09:43:29;;;;;;;14.23;5.97;;;12.40;99.90;;;;;;4209036;28;20251;-82
2022/09/20 09:45:33;;;;;;;14.60;5.50;;;12.40;99.90;;;;;;4236563;27;20571;-80
2022/09/20 09:47:37;;;;;;;11.60;6.13;;;12.40;99.90;;;;;;4220671;28;20213;-79
2022/09/20 09:49:56;;;;;;;10.37;5.63;;;12.40;99.90;;;;;;4233269;27;20255;-80
2022/09/20 09:52:23;;;;;;;9.73;5.73;;;12.30;99.90;;;;;;4235460;27;20623;-79
2022/09/20 09:54:28;;;;;;;15.37;7.27;;;12.30;99.90;;;;;;4229953;27;20279;-80
2022/09/20 09:56:46;;;;;;;11.43;6.50;;;12.30;99.90;;;;;;4223260;28;20231;-80
2022/09/20 09:58:59;;;;;;;13.93;6.37;;;12.30;99.90;;;;;;4235010;27;20700;-80
2022/09/20 10:01:06;;;;;;;12.13;6.10;;;12.30;99.90;;;;;;4233517;27;20200;-80
2022/09/20 10:03:32;;;;;;;13.83;6.07;;;12.20;99.90;;;;;;4237028;27;20203;-80
2022/09/20 10:05:41;;;;;;;14.03;6.57;;;12.20;99.90;;;;;;4197316;27;20239;-80
2022/09/20 10:07:50;;;;;;;11.57;5.73;;;12.30;99.90;;;;;;4237034;27;20210;-80
2022/09/20 10:10:05;;;;;;;14.77;5.50;;;12.30;99.90;;;;;;4235651;27;20322;-79
2022/09/20 10:12:22;;;;;;;9.70;4.80;;;12.30;99.90;;;;;;4233635;27;20227;-79
2022/09/20 10:14:39;;;;;;;9.83;5.17;;;12.30;99.90;;;;;;4239727;28;20207;-80
2022/09/20 10:16:54;;;;;;;12.77;5.23;;;12.40;99.90;;;;;;4219216;28;20705;-79
2022/09/20 10:19:06;;;;;;;10.63;5.10;;;12.30;99.90;;;;;;4219128;28;20637;-80
2022/09/20 10:21:21;;;;;;;9.47;4.87;;;12.40;99.90;;;;;;4238068;28;20192;-82
2022/09/20 10:23:47;;;;;;;9.73;4.97;;;12.40;99.90;;;;;;4237073;28;20247;-82
2022/09/20 10:25:58;;;;;;;13.80;5.27;;;12.40;99.90;;;;;;4232457;28;20234;-82
2022/09/20 10:28:15;;;;;;;9.07;4.80;;;12.50;99.90;;;;;;4233290;28;20219;-82
2022/09/20 10:30:20;;;;;;;8.77;4.93;;;12.50;99.90;;;;;;4240176;28;20224;-82
2022/09/20 10:32:38;;;;;;;10.50;5.30;;;12.60;99.90;;;;;;4241443;28;20224;-82
2022/09/20 10:35:07;;;;;;;8.53;4.73;;;12.60;99.90;;;;;;4241130;28;20212;-82
2022/09/20 10:37:15;;;;;;;9.23;4.33;;;12.80;99.90;;;;;;4218513;28;20295;-82
2022/09/20 10:39:24;;;;;;;11.60;5.30;;;12.80;99.90;;;;;;4222220;28;20241;-82
2022/09/20 10:44:32;;;;;;;11.40;5.47;;;13.00;99.90;;;;;;4240357;28;20624;-83
2022/09/20 10:46:45;;;;;;;10.27;5.27;;;13.10;99.90;;;;;;4237950;28;20206;-82
2022/09/20 10:48:51;;;;;;;9.43;4.73;;;13.30;99.90;;;;;;4236947;27;20667;-83
2022/09/20 10:51:00;;;;;;;11.13;5.57;;;13.30;99.90;;;;;;4172589;28;20284;-82
2022/09/20 10:53:15;;;;;;;11.60;5.60;;;13.50;99.90;;;;;;4229303;28;20215;-83
2022/09/20 10:55:38;;;;;;;14.47;6.30;;;13.50;99.90;;;;;;4225011;28;20207;-82
2022/09/20 10:58:02;;;;;;;18.33;7.07;;;13.40;99.90;;;;;;4211312;27;20204;-82
2022/09/20 11:00:18;;;;;;;16.20;7.40;;;13.30;99.90;;;;;;4236555;27;20290;-82
2022/09/20 11:02:40;;;;;;;20.70;7.63;;;13.20;99.90;;;;;;4244546;27;20225;-83
2022/09/20 11:05:00;;;;;;;15.40;8.13;;;13.10;99.90;;;;;;4241650;27;20256;-83
2022/09/20 11:07:11;;;;;;;16.57;7.00;;;13.00;99.90;;;;;;4233194;27;20211;-82
2022/09/20 11:09:19;;;;;;;14.27;7.40;;;12.90;99.90;;;;;;4153009;28;20230;-82
2022/09/20 11:11:25;;;;;;;14.97;7.30;;;12.90;99.90;;;;;;4217372;28;20215;-79
2022/09/20 11:13:33;;;;;;;18.27;7.87;;;12.90;99.90;;;;;;4190996;27;20184;-79
2022/09/20 11:15:42;;;;;;;20.77;8.17;;;12.80;99.90;;;;;;4235167;27;20576;-82
2022/09/20 11:17:49;;;;;;;19.13;8.20;;;12.90;99.90;;;;;;4238042;27;20226;-80
2022/09/20 11:19:59;;;;;;;21.27;8.37;;;13.10;99.90;;;;;;4219991;28;20232;-80
2022/09/20 11:22:09;;;;;;;16.90;8.20;;;13.10;99.90;;;;;;4235034;27;20197;-80
2022/09/20 11:24:26;;;;;;;15.90;7.47;;;13.30;99.90;;;;;;4238004;27;20295;-81
2022/09/20 11:26:35;;;;;;;15.37;7.33;;;13.50;99.90;;;;;;4219692;28;20295;-80
2022/09/20 11:28:40;;;;;;;14.30;6.50;;;13.70;99.90;;;;;;4240412;27;20205;-79
2022/09/20 11:30:53;;;;;;;16.90;7.50;;;13.70;99.90;;;;;;4241376;27;20273;-80
2022/09/20 11:33:01;;;;;;;12.33;6.80;;;13.70;99.90;;;;;;4223743;28;20213;-81
2022/09/20 11:35:16;;;;;;;16.17;7.40;;;13.70;99.90;;;;;;4224170;28;20212;-80
2022/09/20 11:37:22;;;;;;;15.30;6.20;;;13.80;99.90;;;;;;4238325;27;20216;-81
2022/09/20 11:39:30;;;;;;;15.47;5.50;;;13.80;99.90;;;;;;4242024;27;20233;-82
2022/09/20 11:41:34;;;;;;;10.27;5.10;;;13.80;99.90;;;;;;4238597;27;20215;-80
2022/09/20 11:43:40;;;;;;;8.77;4.57;;;13.80;99.90;;;;;;4222939;28;20205;-82